NCAR-RAP Real-Time Weather Data

Output produced by METARs form (30 April 2017  03:13 UTC)
found at http://weather.rap.ucar.edu/surface/
 
Conditions at: KMCF observed 30 April 2017  02:58 UTC
Temperature: 26.2°C (79°F)
Dewpoint: 19.0°C (66°F) [RH = 65%]
Pressure (altimeter): 30.09 inches Hg (1019.0 mb)
[Sea-level pressure: 1019.2 mb]
Winds: from the ESE (110 degrees) at 13 MPH (11 knots; 5.7 m/s)
Visibility: 10 or more miles (16+ km)
Ceiling: at least 12,000 feet AGL
Clouds: sky clear below 12,000 feet AGL
Present Weather:
SOME DATA ABOVE MAY BE INACCURATE!!!
"$" is an indication the sensor requires maintenance
KMCF 300258Z AUTO 11011KT 10SM CLR 26/19 A3009 RMK AO2 SLP192 T02620190 52015 $

Conditions at: KMCF observed 30 April 2017  01:58 UTC
Temperature: 27.3°C (81°F)
Dewpoint: 19.1°C (66°F) [RH = 61%]
Pressure (altimeter): 30.08 inches Hg (1018.7 mb)
[Sea-level pressure: 1018.9 mb]
Winds: from the ESE (120 degrees) at 13 MPH (11 knots; 5.7 m/s)
Visibility: 10 or more miles (16+ km)
Ceiling: at least 12,000 feet AGL
Clouds: sky clear below 12,000 feet AGL
Present Weather:
SOME DATA ABOVE MAY BE INACCURATE!!!
"$" is an indication the sensor requires maintenance
KMCF 300158Z AUTO 12011KT 10SM CLR 27/19 A3008 RMK AO2 SLP189 T02730191 $

Conditions at: KMCF observed 30 April 2017  00:58 UTC
Temperature: 28.6°C (83°F)
Dewpoint: 18.8°C (66°F) [RH = 55%]
Pressure (altimeter): 30.06 inches Hg (1018.0 mb)
[Sea-level pressure: 1018.2 mb]
Winds: from the ESE (120 degrees) at 14 MPH (12 knots; 6.2 m/s)
Visibility: 10 or more miles (16+ km)
Ceiling: at least 12,000 feet AGL
Clouds: sky clear below 12,000 feet AGL
Present Weather:
SOME DATA ABOVE MAY BE INACCURATE!!!
"$" is an indication the sensor requires maintenance
KMCF 300058Z AUTO 12012KT 10SM CLR 29/19 A3006 RMK AO2 SLP182 T02860188 $

Conditions at: KMCF observed 29 April 2017  23:58 UTC
Temperature: 30.3°C (87°F)
Dewpoint: 18.3°C (65°F) [RH = 49%]
Pressure (altimeter): 30.05 inches Hg (1017.7 mb)
[Sea-level pressure: 1017.9 mb]
Winds: from the SE (130 degrees) at 14 MPH (12 knots; 6.2 m/s)
Visibility: 10 or more miles (16+ km)
Ceiling: at least 12,000 feet AGL
Clouds: sky clear below 12,000 feet AGL
Present Weather:
SOME DATA ABOVE MAY BE INACCURATE!!!
"$" is an indication the sensor requires maintenance
KMCF 292358Z AUTO 13012KT 10SM CLR 30/18 A3005 RMK AO2 SLP179 T03030183 10352 20303 53005 $

Conditions at: KMCF observed 29 April 2017  22:58 UTC
Temperature: 31.8°C (89°F)
Dewpoint: 17.0°C (63°F) [RH = 41%]
Pressure (altimeter): 30.03 inches Hg (1017.0 mb)
[Sea-level pressure: 1017.2 mb]
Winds: from the ESE (120 degrees) at 16 MPH (14 knots; 7.3 m/s)
Visibility: 10 or more miles (16+ km)
Ceiling: at least 12,000 feet AGL
Clouds: sky clear below 12,000 feet AGL
Present Weather:
SOME DATA ABOVE MAY BE INACCURATE!!!
"$" is an indication the sensor requires maintenance
KMCF 292258Z AUTO 12014KT 10SM CLR 32/17 A3003 RMK AO2 SLP172 T03180170 $

Conditions at: KMCF observed 29 April 2017  21:58 UTC
Temperature: 33.7°C (93°F)
Dewpoint: 16.1°C (61°F) [RH = 35%]
Pressure (altimeter): 30.02 inches Hg (1016.7 mb)
[Sea-level pressure: 1016.9 mb]
Winds: from the SE (130 degrees) at 16 MPH (14 knots; 7.3 m/s)
Visibility: 10 or more miles (16+ km)
Ceiling: at least 12,000 feet AGL
Clouds: sky clear below 12,000 feet AGL
Present Weather:
SOME DATA ABOVE MAY BE INACCURATE!!!
"$" is an indication the sensor requires maintenance
KMCF 292158Z AUTO 13014KT 10SM CLR 34/16 A3002 RMK AO2 SLP169 T03370161 $

Conditions at: KMCF observed 29 April 2017  20:58 UTC
Temperature: 34.3°C (94°F)
Dewpoint: 14.2°C (58°F) [RH = 30%]
Pressure (altimeter): 30.03 inches Hg (1017.0 mb)
[Sea-level pressure: 1017.2 mb]
Winds: from the SE (130 degrees) at 17 MPH (15 knots; 7.8 m/s)
gusting to 25 MPH (22 knots; 11.4 m/s)
Visibility: 10 or more miles (16+ km)
Ceiling: at least 12,000 feet AGL
Clouds: few clouds at 20000 feet AGL
Present Weather:
SOME DATA ABOVE MAY BE INACCURATE!!!
"$" is an indication the sensor requires maintenance
KMCF 292058Z AUTO 13015G22KT 10SM FEW200 34/14 A3003 RMK AO2 SLP172 T03430142 57020 $

Conditions at: KMCF observed 29 April 2017  20:00 UTC
Temperature: 35.0°C (95°F)
Dewpoint: 15.0°C (59°F) [RH = 30%]
Pressure (altimeter): 30.04 inches Hg (1017.4 mb)
[Sea-level pressure: 1017.5 mb]
Winds: from the E (80 degrees) at 20 MPH (17 knots; 8.8 m/s)
gusting to 24 MPH (21 knots; 10.9 m/s)
Visibility: 10 or more miles (16+ km)
Ceiling: at least 12,000 feet AGL
Clouds: sky clear below 12,000 feet AGL
Present Weather:
SOME DATA ABOVE MAY BE INACCURATE!!!
"$" is an indication the sensor requires maintenance
KMCF 292000Z AUTO 08017G21KT 10SM CLR 35/15 A3004 RMK AO2 WSHFT 1951 SLP175 $

Conditions at: KMCF observed 29 April 2017  19:58 UTC
Temperature: 34.9°C (95°F)
Dewpoint: 15.7°C (60°F) [RH = 32%]
Pressure (altimeter): 30.04 inches Hg (1017.4 mb)
[Sea-level pressure: 1017.5 mb]
Winds: from the E (90 degrees) at 18 MPH (16 knots; 8.3 m/s)
Visibility: 10 or more miles (16+ km)
Ceiling: at least 12,000 feet AGL
Clouds: sky clear below 12,000 feet AGL
Present Weather:
SOME DATA ABOVE MAY BE INACCURATE!!!
"$" is an indication the sensor requires maintenance
KMCF 291958Z AUTO 09016KT 10SM CLR 35/16 A3004 RMK AO2 SLP175 T03490157 $

Conditions at: KMCF observed 29 April 2017  19:42 UTC
Temperature: 35.0°C (95°F)
Dewpoint: 16.0°C (61°F) [RH = 32%]
Pressure (altimeter): 30.05 inches Hg (1017.7 mb)
[Sea-level pressure: 1017.9 mb]
Winds: from the E (90 degrees) at 17 MPH (15 knots; 7.8 m/s)
Visibility: 10 or more miles (16+ km)
Ceiling: at least 12,000 feet AGL
Clouds: sky clear below 12,000 feet AGL
Present Weather: automated observation with no human augmentation;
there may or may not be significant weather present at this time
KMCF 291942Z AUTO 09015KT 10SM CLR 35/16 A3005 RMK AO2 WSHFT 37 SLP179

Conditions at: KMCF observed 29 April 2017  18:58 UTC
Temperature: 34.7°C (94°F)
Dewpoint: 17.8°C (64°F) [RH = 37%]
Pressure (altimeter): 30.07 inches Hg (1018.4 mb)
[Sea-level pressure: 1018.6 mb]
Winds: from the ESE (110 degrees) at 15 MPH (13 knots; 6.8 m/s)
Visibility: 10 or more miles (16+ km)
Ceiling: at least 12,000 feet AGL
Clouds: few clouds at 17000 feet AGL
Present Weather:
SOME DATA ABOVE MAY BE INACCURATE!!!
"$" is an indication the sensor requires maintenance
KMCF 291858Z AUTO 11013KT 10SM FEW170 35/18 A3007 RMK AO2 SLP186 T03470178 $

Conditions at: KMCF observed 29 April 2017  18:22 UTC
Temperature: 34.0°C (93°F)
Dewpoint: 19.0°C (66°F) [RH = 41%]
Pressure (altimeter): 30.08 inches Hg (1018.7 mb)
[Sea-level pressure: 1018.9 mb]
Winds: from the E (90 degrees) at 14 MPH (12 knots; 6.2 m/s)
gusting to 21 MPH (18 knots; 9.4 m/s)
Visibility: 10 or more miles (16+ km)
Ceiling: at least 12,000 feet AGL
Clouds: few clouds at 19000 feet AGL
Present Weather: automated observation with no human augmentation;
there may or may not be significant weather present at this time
KMCF 291822Z AUTO 09012G18KT 10SM FEW190 34/19 A3008 RMK AO2 WSHFT 13 SLP189

Conditions at: KMCF observed 29 April 2017  17:58 UTC
Temperature: 33.8°C (93°F)
Dewpoint: 19.8°C (68°F) [RH = 44%]
Pressure (altimeter): 30.09 inches Hg (1019.0 mb)
[Sea-level pressure: 1019.2 mb]
Winds: from the ESE (120 degrees) at 18 MPH (16 knots; 8.3 m/s)
Visibility: 10 or more miles (16+ km)
Ceiling: at least 12,000 feet AGL
Clouds: few clouds at 6000 feet AGL
scattered clouds at 18000 feet AGL
scattered clouds at 21000 feet AGL
Present Weather:
SOME DATA ABOVE MAY BE INACCURATE!!!
"$" is an indication the sensor requires maintenance
KMCF 291758Z AUTO 12016KT 10SM FEW060 SCT180 SCT210 34/20 A3009 RMK AO2 SLP192 T03380198 10338 20242 57008 $

Conditions at: KMCF observed 29 April 2017  16:58 UTC
Temperature: 32.6°C (91°F)
Dewpoint: 19.9°C (68°F) [RH = 47%]
Pressure (altimeter): 30.11 inches Hg (1019.7 mb)
[Sea-level pressure: 1019.9 mb]
Winds: from the ESE (120 degrees) at 16 MPH (14 knots; 7.3 m/s)
gusting to 24 MPH (21 knots; 10.9 m/s)
Visibility: 10 or more miles (16+ km)
Ceiling: at least 12,000 feet AGL
Clouds: few clouds at 16000 feet AGL
scattered clouds at 19000 feet AGL
Present Weather:
SOME DATA ABOVE MAY BE INACCURATE!!!
"$" is an indication the sensor requires maintenance
KMCF 291658Z AUTO 12014G21KT 10SM FEW160 SCT190 33/20 A3011 RMK AO2 SLP199 T03260199 $

Conditions at: KMCF observed 29 April 2017  15:58 UTC
Temperature: 30.9°C (88°F)
Dewpoint: 20.8°C (69°F) [RH = 55%]
Pressure (altimeter): 30.12 inches Hg (1020.1 mb)
[Sea-level pressure: 1020.3 mb]
Winds: from the SE (130 degrees) at 15 MPH (13 knots; 6.8 m/s)
gusting to 23 MPH (20 knots; 10.4 m/s)
Visibility: 10 or more miles (16+ km)
Ceiling: at least 12,000 feet AGL
Clouds: few clouds at 20000 feet AGL
Present Weather:
SOME DATA ABOVE MAY BE INACCURATE!!!
"$" is an indication the sensor requires maintenance
KMCF 291558Z AUTO 13013G20KT 10SM FEW200 31/21 A3012 RMK AO2 SLP203 T03090208 $

Conditions at: KMCF observed 29 April 2017  14:58 UTC
Temperature: 29.4°C (85°F)
Dewpoint: 23.0°C (73°F) [RH = 69%]
Pressure (altimeter): 30.12 inches Hg (1020.1 mb)
[Sea-level pressure: 1020.3 mb]
Winds: from the SE (130 degrees) at 17 MPH (15 knots; 7.8 m/s)
Visibility: 10 or more miles (16+ km)
Ceiling: at least 12,000 feet AGL
Clouds: few clouds at 2500 feet AGL
Present Weather:
SOME DATA ABOVE MAY BE INACCURATE!!!
"$" is an indication the sensor requires maintenance
KMCF 291458Z AUTO 13015KT 10SM FEW025 29/23 A3012 RMK AO2 SLP203 T02940230 50001 $

Conditions at: KMCF observed 29 April 2017  14:38 UTC
Temperature: 29.0°C (84°F)
Dewpoint: 24.0°C (75°F) [RH = 74%]
Pressure (altimeter): 30.12 inches Hg (1020.1 mb)
[Sea-level pressure: 1020.3 mb]
Winds: from the SE (130 degrees) at 21 MPH (18 knots; 9.4 m/s)
Visibility: 10 or more miles (16+ km)
Ceiling: at least 12,000 feet AGL
Clouds: scattered clouds at 2500 feet AGL
Present Weather: automated observation with no human augmentation;
there may or may not be significant weather present at this time
KMCF 291438Z AUTO 13018KT 10SM SCT025 29/24 A3012 RMK AO2 SLP203

Conditions at: KMCF observed 29 April 2017  14:33 UTC
Temperature: 29.0°C (84°F)
Dewpoint: 23.0°C (73°F) [RH = 70%]
Pressure (altimeter): 30.12 inches Hg (1020.1 mb)
[Sea-level pressure: 1020.3 mb]
Winds: from the SE (130 degrees) at 18 MPH (16 knots; 8.3 m/s)
gusting to 24 MPH (21 knots; 10.9 m/s)
Visibility: 10 or more miles (16+ km)
Ceiling: 2400 feet AGL
Clouds: broken clouds at 2400 feet AGL
Present Weather:
SOME DATA ABOVE MAY BE INACCURATE!!!
"$" is an indication the sensor requires maintenance
KMCF 291433Z AUTO 13016G21KT 10SM BKN024 29/23 A3012 RMK AO2 BKN V SCT SLP203 $

Conditions at: KMCF observed 29 April 2017  13:58 UTC
Temperature: 27.4°C (81°F)
Dewpoint: 23.6°C (74°F) [RH = 80%]
Pressure (altimeter): 30.12 inches Hg (1020.1 mb)
[Sea-level pressure: 1020.3 mb]
Winds: from the SE (130 degrees) at 18 MPH (16 knots; 8.3 m/s)
gusting to 25 MPH (22 knots; 11.4 m/s)
Visibility: 10 or more miles (16+ km)
Ceiling: at least 12,000 feet AGL
Clouds: scattered clouds at 2000 feet AGL
Present Weather:
SOME DATA ABOVE MAY BE INACCURATE!!!
"$" is an indication the sensor requires maintenance
KMCF 291358Z AUTO 13016G22KT 10SM SCT020 27/24 A3012 RMK AO2 SLP203 T02740236 $

Conditions at: KMCF observed 29 April 2017  12:58 UTC
Temperature: 25.5°C (78°F)
Dewpoint: 24.2°C (76°F) [RH = 93%]
Pressure (altimeter): 30.12 inches Hg (1020.1 mb)
[Sea-level pressure: 1020.3 mb]
Winds: from the ESE (110 degrees) at 15 MPH (13 knots; 6.8 m/s)
Visibility: 10 or more miles (16+ km)
Ceiling: at least 12,000 feet AGL
Clouds: scattered clouds at 1300 feet AGL
Present Weather:
SOME DATA ABOVE MAY BE INACCURATE!!!
"$" is an indication the sensor requires maintenance
KMCF 291258Z AUTO 11013KT 10SM SCT013 26/24 A3012 RMK AO2 SLP203 T02550242 $

Conditions at: KMCF observed 29 April 2017  12:53 UTC
Temperature: 25.0°C (77°F)
Dewpoint: 24.0°C (75°F) [RH = 94%]
Pressure (altimeter): 30.12 inches Hg (1020.1 mb)
[Sea-level pressure: 1020.3 mb]
Winds: from the ESE (110 degrees) at 18 MPH (16 knots; 8.3 m/s)
Visibility: 10 or more miles (16+ km)
Ceiling: 1300 feet AGL
Clouds: broken clouds at 1300 feet AGL
Present Weather: automated observation with no human augmentation;
there may or may not be significant weather present at this time
KMCF 291253Z AUTO 11016KT 10SM BKN013 25/24 A3012 RMK AO2 BKN V SCT SLP203

Conditions at: KMCF observed 29 April 2017  11:58 UTC
Temperature: 24.0°C (75°F)
Dewpoint: 24.0°C (75°F) [RH = 100%]
Pressure (altimeter): 30.12 inches Hg (1020.1 mb)
[Sea-level pressure: 1020.3 mb]
Winds: from the E (100 degrees) at 13 MPH (11 knots; 5.7 m/s)
Visibility: 10 or more miles (16+ km)
Ceiling: at least 12,000 feet AGL
Clouds: sky clear below 12,000 feet AGL
Present Weather:
SOME DATA ABOVE MAY BE INACCURATE!!!
"$" is an indication the sensor requires maintenance
KMCF 291158Z AUTO 10011KT 10SM CLR 24/24 A3012 RMK AO2 SLP203 T02400240 10245 20227 52015 $

Conditions at: KMCF observed 29 April 2017  10:58 UTC
Temperature: 22.8°C (73°F)
Dewpoint: 22.8°C (73°F) [RH = 100%]
Pressure (altimeter): 30.10 inches Hg (1019.4 mb)
[Sea-level pressure: 1019.6 mb]
Winds: from the E (90 degrees) at 12 MPH (10 knots; 5.2 m/s)
Visibility: 10 or more miles (16+ km)
Ceiling: at least 12,000 feet AGL
Clouds: sky clear below 12,000 feet AGL
Present Weather:
SOME DATA ABOVE MAY BE INACCURATE!!!
"$" is an indication the sensor requires maintenance
KMCF 291058Z AUTO 09010KT 10SM CLR 23/23 A3010 RMK AO2 SLP196 T02280228 $

Conditions at: KMCF observed 29 April 2017  09:58 UTC
Temperature: 22.8°C (73°F)
Dewpoint: 22.8°C (73°F) [RH = 100%]
Pressure (altimeter): 30.08 inches Hg (1018.7 mb)
[Sea-level pressure: 1018.9 mb]
Winds: from the E (100 degrees) at 9 MPH (8 knots; 4.2 m/s)
Visibility: 10 or more miles (16+ km)
Ceiling: at least 12,000 feet AGL
Clouds: sky clear below 12,000 feet AGL
Present Weather:
SOME DATA ABOVE MAY BE INACCURATE!!!
"$" is an indication the sensor requires maintenance
KMCF 290958Z AUTO 10008KT 10SM CLR 23/23 A3008 RMK AO2 SLP189 T02280228 $

Conditions at: KMCF observed 29 April 2017  08:58 UTC
Temperature: 23.2°C (74°F)
Dewpoint: 23.2°C (74°F) [RH = 100%]
Pressure (altimeter): 30.07 inches Hg (1018.4 mb)
[Sea-level pressure: 1018.6 mb]
Winds: from the E (100 degrees) at 10 MPH (9 knots; 4.7 m/s)
Visibility: 10 or more miles (16+ km)
Ceiling: at least 12,000 feet AGL
Clouds: sky clear below 12,000 feet AGL
Present Weather:
SOME DATA ABOVE MAY BE INACCURATE!!!
"$" is an indication the sensor requires maintenance
KMCF 290858Z AUTO 10009KT 10SM CLR 23/23 A3007 RMK AO2 SLP186 T02320232 57007 $

Conditions at: KMCF observed 29 April 2017  07:58 UTC
Temperature: 23.5°C (74°F)
Dewpoint: 23.5°C (74°F) [RH = 100%]
Pressure (altimeter): 30.08 inches Hg (1018.7 mb)
[Sea-level pressure: 1018.9 mb]
Winds: from the E (100 degrees) at 9 MPH (8 knots; 4.2 m/s)
Visibility: 10 or more miles (16+ km)
Ceiling: at least 12,000 feet AGL
Clouds: sky clear below 12,000 feet AGL
Present Weather:
SOME DATA ABOVE MAY BE INACCURATE!!!
"$" is an indication the sensor requires maintenance
KMCF 290758Z AUTO 10008KT 10SM CLR 24/24 A3008 RMK AO2 SLP189 T02350235 $

Conditions at: KMCF observed 29 April 2017  06:58 UTC
Temperature: 23.9°C (75°F)
Dewpoint: 23.2°C (74°F) [RH = 96%]
Pressure (altimeter): 30.08 inches Hg (1018.7 mb)
[Sea-level pressure: 1018.9 mb]
Winds: from the ESE (110 degrees) at 12 MPH (10 knots; 5.2 m/s)
Visibility: 10 or more miles (16+ km)
Ceiling: at least 12,000 feet AGL
Clouds: sky clear below 12,000 feet AGL
Present Weather:
SOME DATA ABOVE MAY BE INACCURATE!!!
"$" is an indication the sensor requires maintenance
KMCF 290658Z AUTO 11010KT 10SM CLR 24/23 A3008 RMK AO2 SLP189 T02390232 $

Conditions at: KMCF observed 29 April 2017  05:58 UTC
Temperature: 24.6°C (76°F)
Dewpoint: 23.1°C (74°F) [RH = 91%]
Pressure (altimeter): 30.09 inches Hg (1019.0 mb)
[Sea-level pressure: 1019.2 mb]
Winds: from the ESE (110 degrees) at 8 MPH (7 knots; 3.6 m/s)
Visibility: 10 or more miles (16+ km)
Ceiling: at least 12,000 feet AGL
Clouds: sky clear below 12,000 feet AGL
Present Weather:
SOME DATA ABOVE MAY BE INACCURATE!!!
"$" is an indication the sensor requires maintenance
KMCF 290558Z AUTO 11007KT 10SM CLR 25/23 A3009 RMK AO2 SLP192 T02460231 10275 20246 50001 $

Conditions at: KMCF observed 29 April 2017  04:58 UTC
Temperature: 25.4°C (78°F)
Dewpoint: 22.9°C (73°F) [RH = 86%]
Pressure (altimeter): 30.10 inches Hg (1019.4 mb)
[Sea-level pressure: 1019.6 mb]
Winds: from the SE (130 degrees) at 14 MPH (12 knots; 6.2 m/s)
Visibility: 10 or more miles (16+ km)
Ceiling: at least 12,000 feet AGL
Clouds: sky clear below 12,000 feet AGL
Present Weather:
SOME DATA ABOVE MAY BE INACCURATE!!!
"$" is an indication the sensor requires maintenance
KMCF 290458Z AUTO 13012KT 10SM CLR 25/23 A3010 RMK AO2 SLP196 T02540229 403420205 $

Conditions at: KMCF observed 29 April 2017  03:58 UTC
Temperature: 26.3°C (79°F)
Dewpoint: 22.7°C (73°F) [RH = 81%]
Pressure (altimeter): 30.09 inches Hg (1019.0 mb)
[Sea-level pressure: 1019.2 mb]
Winds: from the SE (130 degrees) at 13 MPH (11 knots; 5.7 m/s)
Visibility: 10 or more miles (16+ km)
Ceiling: at least 12,000 feet AGL
Clouds: sky clear below 12,000 feet AGL
Present Weather:
SOME DATA ABOVE MAY BE INACCURATE!!!
"$" is an indication the sensor requires maintenance
KMCF 290358Z AUTO 13011KT 10SM CLR 26/23 A3009 RMK AO2 SLP192 T02630227 $